sensor_id;sensor_type;location;lat;lon;timestamp;P1;durP1;ratioP1;P2;durP2;ratioP2
82034;SDS011;71599;49.892;18.914;2023-08-30T00:02:58;4.93;;;3.55;;
82034;SDS011;71599;49.892;18.914;2023-08-30T00:07:59;6.75;;;3.25;;
82034;SDS011;71599;49.892;18.914;2023-08-30T00:13:01;3.67;;;2.13;;
82034;SDS011;71599;49.892;18.914;2023-08-30T00:18:03;1.75;;;1.40;;
82034;SDS011;71599;49.892;18.914;2023-08-30T00:23:04;1.75;;;1.30;;
82034;SDS011;71599;49.892;18.914;2023-08-30T00:28:07;1.80;;;1.60;;
82034;SDS011;71599;49.892;18.914;2023-08-30T00:33:08;2.80;;;1.80;;
82034;SDS011;71599;49.892;18.914;2023-08-30T00:38:09;2.55;;;1.50;;
82034;SDS011;71599;49.892;18.914;2023-08-30T00:43:11;2.83;;;1.98;;
82034;SDS011;71599;49.892;18.914;2023-08-30T00:48:12;2.03;;;1.58;;
82034;SDS011;71599;49.892;18.914;2023-08-30T00:53:14;2.05;;;1.85;;
82034;SDS011;71599;49.892;18.914;2023-08-30T00:58:17;3.08;;;2.33;;
82034;SDS011;71599;49.892;18.914;2023-08-30T01:03:18;2.47;;;1.85;;
82034;SDS011;71599;49.892;18.914;2023-08-30T01:08:19;3.22;;;2.38;;
82034;SDS011;71599;49.892;18.914;2023-08-30T01:13:21;6.03;;;3.25;;
82034;SDS011;71599;49.892;18.914;2023-08-30T01:18:24;3.95;;;2.78;;
82034;SDS011;71599;49.892;18.914;2023-08-30T01:23:29;3.75;;;2.70;;
82034;SDS011;71599;49.892;18.914;2023-08-30T01:28:42;3.33;;;3.03;;
82034;SDS011;71599;49.892;18.914;2023-08-30T01:33:42;4.07;;;3.45;;
82034;SDS011;71599;49.892;18.914;2023-08-30T01:38:44;5.10;;;3.17;;
82034;SDS011;71599;49.892;18.914;2023-08-30T01:43:47;5.60;;;4.00;;
82034;SDS011;71599;49.892;18.914;2023-08-30T01:48:50;6.80;;;4.50;;
82034;SDS011;71599;49.892;18.914;2023-08-30T01:53:51;5.72;;;4.43;;
82034;SDS011;71599;49.892;18.914;2023-08-30T01:58:56;5.53;;;4.25;;
82034;SDS011;71599;49.892;18.914;2023-08-30T02:03:56;7.70;;;5.93;;
82034;SDS011;71599;49.892;18.914;2023-08-30T02:09:04;8.05;;;5.60;;
82034;SDS011;71599;49.892;18.914;2023-08-30T02:14:11;9.95;;;6.13;;
82034;SDS011;71599;49.892;18.914;2023-08-30T02:19:15;8.63;;;6.18;;
82034;SDS011;71599;49.892;18.914;2023-08-30T02:24:17;8.63;;;6.32;;
82034;SDS011;71599;49.892;18.914;2023-08-30T02:29:19;11.02;;;6.40;;
82034;SDS011;71599;49.892;18.914;2023-08-30T02:34:20;11.00;;;6.85;;
82034;SDS011;71599;49.892;18.914;2023-08-30T02:39:21;10.43;;;6.97;;
82034;SDS011;71599;49.892;18.914;2023-08-30T02:44:23;9.90;;;6.20;;
82034;SDS011;71599;49.892;18.914;2023-08-30T02:49:24;12.13;;;7.35;;
82034;SDS011;71599;49.892;18.914;2023-08-30T02:54:25;12.88;;;8.00;;
82034;SDS011;71599;49.892;18.914;2023-08-30T02:59:27;15.38;;;8.48;;
82034;SDS011;71599;49.892;18.914;2023-08-30T03:04:28;13.68;;;7.93;;
82034;SDS011;71599;49.892;18.914;2023-08-30T03:09:29;14.23;;;7.57;;
82034;SDS011;71599;49.892;18.914;2023-08-30T03:14:32;13.43;;;7.72;;
82034;SDS011;71599;49.892;18.914;2023-08-30T03:19:33;11.70;;;7.22;;
82034;SDS011;71599;49.892;18.914;2023-08-30T03:24:34;14.35;;;7.75;;
82034;SDS011;71599;49.892;18.914;2023-08-30T03:29:36;13.82;;;6.88;;
82034;SDS011;71599;49.892;18.914;2023-08-30T03:34:37;15.52;;;8.40;;
82034;SDS011;71599;49.892;18.914;2023-08-30T03:39:38;14.25;;;8.32;;
82034;SDS011;71599;49.892;18.914;2023-08-30T03:44:40;16.00;;;7.18;;
82034;SDS011;71599;49.892;18.914;2023-08-30T03:49:43;14.40;;;8.07;;
82034;SDS011;71599;49.892;18.914;2023-08-30T03:54:44;14.77;;;7.85;;
82034;SDS011;71599;49.892;18.914;2023-08-30T03:59:46;10.95;;;6.80;;
82034;SDS011;71599;49.892;18.914;2023-08-30T04:04:47;16.80;;;9.07;;
82034;SDS011;71599;49.892;18.914;2023-08-30T04:09:49;13.98;;;8.18;;
82034;SDS011;71599;49.892;18.914;2023-08-30T04:14:52;12.82;;;7.10;;
82034;SDS011;71599;49.892;18.914;2023-08-30T04:19:53;18.10;;;8.25;;
82034;SDS011;71599;49.892;18.914;2023-08-30T04:24:54;11.15;;;7.03;;
82034;SDS011;71599;49.892;18.914;2023-08-30T04:29:56;11.98;;;7.13;;
82034;SDS011;71599;49.892;18.914;2023-08-30T04:34:57;9.68;;;6.43;;
82034;SDS011;71599;49.892;18.914;2023-08-30T04:39:58;10.75;;;6.97;;
82034;SDS011;71599;49.892;18.914;2023-08-30T04:45:01;10.55;;;6.82;;
82034;SDS011;71599;49.892;18.914;2023-08-30T04:50:03;11.52;;;5.97;;
82034;SDS011;71599;49.892;18.914;2023-08-30T04:55:04;10.30;;;6.20;;
82034;SDS011;71599;49.892;18.914;2023-08-30T05:00:08;10.32;;;5.68;;
82034;SDS011;71599;49.892;18.914;2023-08-30T05:05:09;7.97;;;4.78;;
82034;SDS011;71599;49.892;18.914;2023-08-30T05:10:10;7.95;;;5.00;;
82034;SDS011;71599;49.892;18.914;2023-08-30T05:15:13;7.75;;;4.78;;
82034;SDS011;71599;49.892;18.914;2023-08-30T05:20:14;5.50;;;4.03;;
82034;SDS011;71599;49.892;18.914;2023-08-30T05:25:15;7.60;;;4.07;;
82034;SDS011;71599;49.892;18.914;2023-08-30T05:30:17;5.63;;;3.28;;
82034;SDS011;71599;49.892;18.914;2023-08-30T05:35:18;4.95;;;3.30;;
82034;SDS011;71599;49.892;18.914;2023-08-30T05:40:19;3.83;;;2.67;;
82034;SDS011;71599;49.892;18.914;2023-08-30T05:45:21;3.38;;;2.40;;
82034;SDS011;71599;49.892;18.914;2023-08-30T05:50:22;4.45;;;2.85;;
82034;SDS011;71599;49.892;18.914;2023-08-30T05:55:23;4.18;;;2.95;;
82034;SDS011;71599;49.892;18.914;2023-08-30T06:00:26;3.22;;;2.45;;
82034;SDS011;71599;49.892;18.914;2023-08-30T06:05:27;2.95;;;2.00;;
82034;SDS011;71599;49.892;18.914;2023-08-30T06:10:28;3.90;;;2.33;;
82034;SDS011;71599;49.892;18.914;2023-08-30T06:15:30;2.55;;;1.95;;
82034;SDS011;71599;49.892;18.914;2023-08-30T06:20:31;3.38;;;2.42;;
82034;SDS011;71599;49.892;18.914;2023-08-30T06:25:32;2.25;;;2.05;;
82034;SDS011;71599;49.892;18.914;2023-08-30T06:30:34;3.00;;;1.80;;
82034;SDS011;71599;49.892;18.914;2023-08-30T06:35:36;2.05;;;1.45;;
82034;SDS011;71599;49.892;18.914;2023-08-30T06:40:42;2.30;;;1.55;;
82034;SDS011;71599;49.892;18.914;2023-08-30T06:45:45;2.38;;;1.58;;
82034;SDS011;71599;49.892;18.914;2023-08-30T06:50:46;3.38;;;1.95;;
82034;SDS011;71599;49.892;18.914;2023-08-30T06:55:55;3.28;;;1.55;;
82034;SDS011;71599;49.892;18.914;2023-08-30T07:00:59;3.00;;;1.70;;
82034;SDS011;71599;49.892;18.914;2023-08-30T07:06:00;3.85;;;1.60;;
82034;SDS011;71599;49.892;18.914;2023-08-30T07:11:01;2.67;;;1.77;;
82034;SDS011;71599;49.892;18.914;2023-08-30T07:16:04;3.00;;;1.60;;
82034;SDS011;71599;49.892;18.914;2023-08-30T07:21:05;3.35;;;1.55;;
82034;SDS011;71599;49.892;18.914;2023-08-30T07:26:06;3.05;;;1.33;;
82034;SDS011;71599;49.892;18.914;2023-08-30T07:31:09;3.92;;;2.20;;
82034;SDS011;71599;49.892;18.914;2023-08-30T07:36:10;5.65;;;2.00;;
82034;SDS011;71599;49.892;18.914;2023-08-30T07:41:11;5.97;;;2.72;;
82034;SDS011;71599;49.892;18.914;2023-08-30T07:46:13;5.72;;;2.60;;
82034;SDS011;71599;49.892;18.914;2023-08-30T07:51:14;4.90;;;2.38;;
82034;SDS011;71599;49.892;18.914;2023-08-30T07:56:15;5.28;;;3.38;;
82034;SDS011;71599;49.892;18.914;2023-08-30T08:01:18;4.03;;;2.95;;
82034;SDS011;71599;49.892;18.914;2023-08-30T08:06:19;6.20;;;3.97;;
82034;SDS011;71599;49.892;18.914;2023-08-30T08:11:20;6.20;;;4.28;;
82034;SDS011;71599;49.892;18.914;2023-08-30T08:16:22;5.28;;;4.40;;
82034;SDS011;71599;49.892;18.914;2023-08-30T08:21:24;7.47;;;4.10;;
82034;SDS011;71599;49.892;18.914;2023-08-30T08:26:25;7.50;;;5.28;;
82034;SDS011;71599;49.892;18.914;2023-08-30T08:31:27;9.38;;;6.00;;
82034;SDS011;71599;49.892;18.914;2023-08-30T08:36:28;9.52;;;6.40;;
82034;SDS011;71599;49.892;18.914;2023-08-30T08:41:31;6.80;;;5.45;;
82034;SDS011;71599;49.892;18.914;2023-08-30T08:46:40;10.20;;;5.47;;
82034;SDS011;71599;49.892;18.914;2023-08-30T08:51:42;6.95;;;5.25;;
82034;SDS011;71599;49.892;18.914;2023-08-30T08:56:44;7.55;;;6.07;;
82034;SDS011;71599;49.892;18.914;2023-08-30T09:01:47;12.77;;;8.68;;
82034;SDS011;71599;49.892;18.914;2023-08-30T09:06:49;10.43;;;8.20;;
82034;SDS011;71599;49.892;18.914;2023-08-30T09:11:50;10.43;;;8.20;;
82034;SDS011;71599;49.892;18.914;2023-08-30T09:16:56;8.38;;;7.47;;
82034;SDS011;71599;49.892;18.914;2023-08-30T09:21:59;9.00;;;6.97;;
82034;SDS011;71599;49.892;18.914;2023-08-30T09:27:00;9.88;;;7.13;;
82034;SDS011;71599;49.892;18.914;2023-08-30T09:32:03;8.05;;;6.35;;
82034;SDS011;71599;49.892;18.914;2023-08-30T09:37:04;5.57;;;4.82;;
82034;SDS011;71599;49.892;18.914;2023-08-30T09:42:05;6.95;;;5.03;;
82034;SDS011;71599;49.892;18.914;2023-08-30T09:47:07;8.38;;;6.15;;
82034;SDS011;71599;49.892;18.914;2023-08-30T09:52:09;7.80;;;6.10;;
82034;SDS011;71599;49.892;18.914;2023-08-30T09:57:10;7.32;;;4.95;;
82034;SDS011;71599;49.892;18.914;2023-08-30T10:02:13;9.07;;;6.03;;
82034;SDS011;71599;49.892;18.914;2023-08-30T10:07:14;9.00;;;6.82;;
82034;SDS011;71599;49.892;18.914;2023-08-30T10:12:16;8.05;;;6.82;;
82034;SDS011;71599;49.892;18.914;2023-08-30T10:17:21;9.98;;;6.70;;
82034;SDS011;71599;49.892;18.914;2023-08-30T10:22:27;9.63;;;6.38;;
82034;SDS011;71599;49.892;18.914;2023-08-30T10:27:29;11.65;;;7.30;;
82034;SDS011;71599;49.892;18.914;2023-08-30T10:32:33;11.38;;;7.85;;
82034;SDS011;71599;49.892;18.914;2023-08-30T10:37:39;11.32;;;8.15;;
82034;SDS011;71599;49.892;18.914;2023-08-30T10:42:41;10.23;;;6.78;;
82034;SDS011;71599;49.892;18.914;2023-08-30T10:47:43;8.77;;;6.15;;
82034;SDS011;71599;49.892;18.914;2023-08-30T10:52:44;7.70;;;6.15;;
82034;SDS011;71599;49.892;18.914;2023-08-30T10:57:59;4.35;;;3.70;;
82034;SDS011;71599;49.892;18.914;2023-08-30T11:03:02;4.90;;;3.72;;
82034;SDS011;71599;49.892;18.914;2023-08-30T11:08:04;5.43;;;3.55;;
82034;SDS011;71599;49.892;18.914;2023-08-30T11:13:14;4.68;;;3.40;;
82034;SDS011;71599;49.892;18.914;2023-08-30T11:18:19;5.95;;;3.92;;
82034;SDS011;71599;49.892;18.914;2023-08-30T11:23:20;6.22;;;3.25;;
82034;SDS011;71599;49.892;18.914;2023-08-30T11:28:22;5.10;;;3.72;;
82034;SDS011;71599;49.892;18.914;2023-08-30T11:33:24;7.53;;;4.30;;
82034;SDS011;71599;49.892;18.914;2023-08-30T11:38:25;7.35;;;4.25;;
82034;SDS011;71599;49.892;18.914;2023-08-30T11:43:27;4.55;;;3.40;;
82034;SDS011;71599;49.892;18.914;2023-08-30T11:48:30;7.22;;;4.03;;
82034;SDS011;71599;49.892;18.914;2023-08-30T11:53:32;6.30;;;4.22;;
82034;SDS011;71599;49.892;18.914;2023-08-30T11:58:34;4.28;;;3.25;;
82034;SDS011;71599;49.892;18.914;2023-08-30T12:03:37;4.93;;;3.50;;
82034;SDS011;71599;49.892;18.914;2023-08-30T12:08:38;6.05;;;3.90;;
82034;SDS011;71599;49.892;18.914;2023-08-30T12:13:39;5.88;;;4.40;;
82034;SDS011;71599;49.892;18.914;2023-08-30T12:18:42;8.00;;;4.53;;
82034;SDS011;71599;49.892;18.914;2023-08-30T12:23:43;6.35;;;4.30;;
82034;SDS011;71599;49.892;18.914;2023-08-30T12:28:44;3.75;;;3.35;;
82034;SDS011;71599;49.892;18.914;2023-08-30T12:33:46;4.35;;;3.67;;
82034;SDS011;71599;49.892;18.914;2023-08-30T12:38:47;5.93;;;3.60;;
82034;SDS011;71599;49.892;18.914;2023-08-30T12:43:48;4.25;;;3.42;;
82034;SDS011;71599;49.892;18.914;2023-08-30T12:48:51;6.03;;;4.65;;
82034;SDS011;71599;49.892;18.914;2023-08-30T12:53:52;10.73;;;7.45;;
82034;SDS011;71599;49.892;18.914;2023-08-30T12:58:53;11.07;;;8.13;;
82034;SDS011;71599;49.892;18.914;2023-08-30T13:03:55;12.35;;;8.00;;
82034;SDS011;71599;49.892;18.914;2023-08-30T13:08:56;14.13;;;9.20;;
82034;SDS011;71599;49.892;18.914;2023-08-30T13:13:57;12.35;;;8.43;;
82034;SDS011;71599;49.892;18.914;2023-08-30T13:19:00;12.73;;;8.13;;
82034;SDS011;71599;49.892;18.914;2023-08-30T13:24:01;13.52;;;9.05;;
82034;SDS011;71599;49.892;18.914;2023-08-30T13:29:01;12.25;;;9.20;;
82034;SDS011;71599;49.892;18.914;2023-08-30T13:34:04;11.23;;;9.13;;
82034;SDS011;71599;49.892;18.914;2023-08-30T13:39:05;11.23;;;8.82;;
82034;SDS011;71599;49.892;18.914;2023-08-30T13:44:06;13.93;;;9.77;;
82034;SDS011;71599;49.892;18.914;2023-08-30T13:49:08;11.52;;;8.10;;
82034;SDS011;71599;49.892;18.914;2023-08-30T13:54:09;10.10;;;8.60;;
82034;SDS011;71599;49.892;18.914;2023-08-30T13:59:10;13.88;;;8.35;;
82034;SDS011;71599;49.892;18.914;2023-08-30T14:04:12;9.90;;;7.53;;
82034;SDS011;71599;49.892;18.914;2023-08-30T14:09:13;9.88;;;7.22;;
82034;SDS011;71599;49.892;18.914;2023-08-30T14:14:14;11.52;;;7.45;;
82034;SDS011;71599;49.892;18.914;2023-08-30T14:19:17;9.07;;;6.97;;
82034;SDS011;71599;49.892;18.914;2023-08-30T14:24:18;10.82;;;7.63;;
82034;SDS011;71599;49.892;18.914;2023-08-30T14:29:20;10.82;;;7.30;;
82034;SDS011;71599;49.892;18.914;2023-08-30T14:34:23;11.23;;;7.82;;
82034;SDS011;71599;49.892;18.914;2023-08-30T14:39:23;12.43;;;8.30;;
82034;SDS011;71599;49.892;18.914;2023-08-30T14:44:24;9.48;;;6.57;;
82034;SDS011;71599;49.892;18.914;2023-08-30T14:49:27;8.85;;;6.50;;
82034;SDS011;71599;49.892;18.914;2023-08-30T14:54:30;11.38;;;7.47;;
82034;SDS011;71599;49.892;18.914;2023-08-30T14:59:31;11.95;;;8.20;;
82034;SDS011;71599;49.892;18.914;2023-08-30T15:04:34;10.55;;;6.93;;
82034;SDS011;71599;49.892;18.914;2023-08-30T15:09:35;10.32;;;7.28;;
82034;SDS011;71599;49.892;18.914;2023-08-30T15:14:36;11.00;;;6.80;;
82034;SDS011;71599;49.892;18.914;2023-08-30T15:19:38;9.70;;;6.57;;
82034;SDS011;71599;49.892;18.914;2023-08-30T15:24:39;7.80;;;5.72;;
82034;SDS011;71599;49.892;18.914;2023-08-30T15:29:40;8.70;;;5.60;;
82034;SDS011;71599;49.892;18.914;2023-08-30T15:34:42;7.60;;;5.10;;
82034;SDS011;71599;49.892;18.914;2023-08-30T15:39:44;5.97;;;5.13;;
82034;SDS011;71599;49.892;18.914;2023-08-30T15:44:45;5.85;;;4.45;;
82034;SDS011;71599;49.892;18.914;2023-08-30T15:49:47;6.18;;;4.30;;
82034;SDS011;71599;49.892;18.914;2023-08-30T15:54:50;5.28;;;4.10;;
82034;SDS011;71599;49.892;18.914;2023-08-30T15:59:51;7.95;;;4.47;;
82034;SDS011;71599;49.892;18.914;2023-08-30T16:04:54;5.72;;;3.90;;
82034;SDS011;71599;49.892;18.914;2023-08-30T16:09:55;6.18;;;4.53;;
82034;SDS011;71599;49.892;18.914;2023-08-30T16:14:56;6.25;;;4.45;;
82034;SDS011;71599;49.892;18.914;2023-08-30T16:19:59;6.35;;;4.30;;
82034;SDS011;71599;49.892;18.914;2023-08-30T16:25:01;5.35;;;3.92;;
82034;SDS011;71599;49.892;18.914;2023-08-30T16:30:02;6.97;;;3.67;;
82034;SDS011;71599;49.892;18.914;2023-08-30T16:35:06;3.97;;;3.25;;
82034;SDS011;71599;49.892;18.914;2023-08-30T16:40:07;5.80;;;3.78;;
82034;SDS011;71599;49.892;18.914;2023-08-30T16:45:09;4.07;;;3.20;;
82034;SDS011;71599;49.892;18.914;2023-08-30T16:50:12;3.97;;;2.90;;
82034;SDS011;71599;49.892;18.914;2023-08-30T16:55:13;3.90;;;3.20;;
82034;SDS011;71599;49.892;18.914;2023-08-30T17:00:14;4.35;;;3.80;;
82034;SDS011;71599;49.892;18.914;2023-08-30T17:05:18;7.40;;;4.25;;
82034;SDS011;71599;49.892;18.914;2023-08-30T17:10:19;5.30;;;4.35;;
82034;SDS011;71599;49.892;18.914;2023-08-30T17:15:20;5.80;;;4.30;;
82034;SDS011;71599;49.892;18.914;2023-08-30T17:20:22;5.95;;;3.65;;
82034;SDS011;71599;49.892;18.914;2023-08-30T17:25:23;6.72;;;4.47;;
82034;SDS011;71599;49.892;18.914;2023-08-30T17:30:24;5.90;;;4.22;;
82034;SDS011;71599;49.892;18.914;2023-08-30T17:35:26;7.53;;;3.95;;
82034;SDS011;71599;49.892;18.914;2023-08-30T17:40:29;7.97;;;3.72;;
82034;SDS011;71599;49.892;18.914;2023-08-30T17:45:30;6.60;;;3.63;;
82034;SDS011;71599;49.892;18.914;2023-08-30T17:50:33;5.60;;;3.60;;
82034;SDS011;71599;49.892;18.914;2023-08-30T17:55:34;5.55;;;3.40;;
82034;SDS011;71599;49.892;18.914;2023-08-30T18:00:35;5.95;;;4.05;;
82034;SDS011;71599;49.892;18.914;2023-08-30T18:05:37;5.35;;;3.88;;
82034;SDS011;71599;49.892;18.914;2023-08-30T18:10:38;5.05;;;3.95;;
82034;SDS011;71599;49.892;18.914;2023-08-30T18:15:39;3.97;;;3.60;;
82034;SDS011;71599;49.892;18.914;2023-08-30T18:20:42;7.32;;;4.07;;
82034;SDS011;71599;49.892;18.914;2023-08-30T18:25:43;7.80;;;3.83;;
82034;SDS011;71599;49.892;18.914;2023-08-30T18:30:44;5.97;;;4.45;;
82034;SDS011;71599;49.892;18.914;2023-08-30T18:35:46;7.13;;;5.35;;
82034;SDS011;71599;49.892;18.914;2023-08-30T18:40:47;7.40;;;6.30;;
82034;SDS011;71599;49.892;18.914;2023-08-30T18:45:48;8.23;;;6.88;;
82034;SDS011;71599;49.892;18.914;2023-08-30T18:50:51;8.10;;;6.78;;
82034;SDS011;71599;49.892;18.914;2023-08-30T18:55:52;9.15;;;6.60;;
82034;SDS011;71599;49.892;18.914;2023-08-30T19:00:53;7.03;;;5.57;;
82034;SDS011;71599;49.892;18.914;2023-08-30T19:05:55;8.57;;;6.57;;
82034;SDS011;71599;49.892;18.914;2023-08-30T19:10:56;6.75;;;5.25;;
82034;SDS011;71599;49.892;18.914;2023-08-30T19:15:57;8.60;;;5.40;;
82034;SDS011;71599;49.892;18.914;2023-08-30T19:21:00;8.52;;;5.90;;
82034;SDS011;71599;49.892;18.914;2023-08-30T19:26:01;6.78;;;6.07;;
82034;SDS011;71599;49.892;18.914;2023-08-30T19:31:02;8.98;;;6.50;;
82034;SDS011;71599;49.892;18.914;2023-08-30T19:36:05;9.63;;;5.88;;
82034;SDS011;71599;49.892;18.914;2023-08-30T19:41:06;8.38;;;5.35;;
82034;SDS011;71599;49.892;18.914;2023-08-30T19:46:07;6.10;;;4.72;;
82034;SDS011;71599;49.892;18.914;2023-08-30T19:51:09;6.03;;;4.60;;
82034;SDS011;71599;49.892;18.914;2023-08-30T19:56:10;5.65;;;4.70;;
82034;SDS011;71599;49.892;18.914;2023-08-30T20:01:11;7.53;;;4.93;;
82034;SDS011;71599;49.892;18.914;2023-08-30T20:06:14;5.57;;;4.38;;
82034;SDS011;71599;49.892;18.914;2023-08-30T20:11:15;5.10;;;4.40;;
82034;SDS011;71599;49.892;18.914;2023-08-30T20:16:16;5.53;;;4.95;;
82034;SDS011;71599;49.892;18.914;2023-08-30T20:21:19;5.68;;;4.53;;
82034;SDS011;71599;49.892;18.914;2023-08-30T20:26:20;7.13;;;4.60;;
82034;SDS011;71599;49.892;18.914;2023-08-30T20:31:21;7.68;;;5.05;;
82034;SDS011;71599;49.892;18.914;2023-08-30T20:36:24;6.35;;;5.35;;
82034;SDS011;71599;49.892;18.914;2023-08-30T20:41:25;6.80;;;5.45;;
82034;SDS011;71599;49.892;18.914;2023-08-30T20:46:26;8.15;;;5.72;;
82034;SDS011;71599;49.892;18.914;2023-08-30T20:51:28;5.10;;;4.60;;
82034;SDS011;71599;49.892;18.914;2023-08-30T20:56:29;10.38;;;6.50;;
82034;SDS011;71599;49.892;18.914;2023-08-30T21:01:31;6.63;;;5.30;;
82034;SDS011;71599;49.892;18.914;2023-08-30T21:06:33;8.38;;;5.28;;
82034;SDS011;71599;49.892;18.914;2023-08-30T21:11:34;7.93;;;5.63;;
82034;SDS011;71599;49.892;18.914;2023-08-30T21:16:35;7.70;;;5.70;;
82034;SDS011;71599;49.892;18.914;2023-08-30T21:21:37;6.95;;;6.25;;
82034;SDS011;71599;49.892;18.914;2023-08-30T21:26:38;7.28;;;6.03;;
82034;SDS011;71599;49.892;18.914;2023-08-30T21:31:39;8.05;;;5.80;;
82034;SDS011;71599;49.892;18.914;2023-08-30T21:36:42;8.38;;;5.53;;
82034;SDS011;71599;49.892;18.914;2023-08-30T21:41:43;8.15;;;6.00;;
82034;SDS011;71599;49.892;18.914;2023-08-30T21:46:44;8.00;;;5.40;;
82034;SDS011;71599;49.892;18.914;2023-08-30T21:51:47;7.18;;;5.35;;
82034;SDS011;71599;49.892;18.914;2023-08-30T21:56:48;6.25;;;4.78;;
82034;SDS011;71599;49.892;18.914;2023-08-30T22:01:49;6.90;;;4.57;;
82034;SDS011;71599;49.892;18.914;2023-08-30T22:06:51;7.20;;;4.95;;
82034;SDS011;71599;49.892;18.914;2023-08-30T22:11:52;8.20;;;6.03;;
82034;SDS011;71599;49.892;18.914;2023-08-30T22:16:53;7.05;;;5.47;;
82034;SDS011;71599;49.892;18.914;2023-08-30T22:21:56;6.90;;;5.78;;
82034;SDS011;71599;49.892;18.914;2023-08-30T22:26:57;7.60;;;5.68;;
82034;SDS011;71599;49.892;18.914;2023-08-30T22:31:58;6.97;;;5.80;;
82034;SDS011;71599;49.892;18.914;2023-08-30T22:37:00;7.32;;;5.88;;
82034;SDS011;71599;49.892;18.914;2023-08-30T22:42:01;7.75;;;5.70;;
82034;SDS011;71599;49.892;18.914;2023-08-30T22:47:02;11.77;;;6.65;;
82034;SDS011;71599;49.892;18.914;2023-08-30T22:52:05;6.32;;;5.35;;
82034;SDS011;71599;49.892;18.914;2023-08-30T22:57:06;6.78;;;5.25;;
82034;SDS011;71599;49.892;18.914;2023-08-30T23:02:07;8.13;;;4.95;;
82034;SDS011;71599;49.892;18.914;2023-08-30T23:07:09;6.63;;;5.72;;
82034;SDS011;71599;49.892;18.914;2023-08-30T23:12:10;9.70;;;6.28;;
82034;SDS011;71599;49.892;18.914;2023-08-30T23:17:11;6.55;;;5.57;;
82034;SDS011;71599;49.892;18.914;2023-08-30T23:22:13;8.32;;;6.20;;
82034;SDS011;71599;49.892;18.914;2023-08-30T23:27:14;9.25;;;6.53;;
82034;SDS011;71599;49.892;18.914;2023-08-30T23:32:16;6.75;;;6.05;;
82034;SDS011;71599;49.892;18.914;2023-08-30T23:37:18;6.72;;;5.70;;
82034;SDS011;71599;49.892;18.914;2023-08-30T23:42:19;6.22;;;5.45;;
82034;SDS011;71599;49.892;18.914;2023-08-30T23:47:20;8.13;;;5.60;;
82034;SDS011;71599;49.892;18.914;2023-08-30T23:52:23;6.80;;;5.50;;
82034;SDS011;71599;49.892;18.914;2023-08-30T23:57:24;8.82;;;6.32;;
